createdAt,value
2019-01-28T00:00:00.740Z,66.62
2019-01-28T00:02:09.063Z,60.88
2019-01-28T00:04:14.548Z,44.50
2019-01-28T00:06:18.299Z,55.00
2019-01-28T00:08:26.550Z,54.63
2019-01-28T00:10:30.237Z,49.00
2019-01-28T00:12:34.122Z,42.00
2019-01-28T00:14:38.098Z,37.75
2019-01-28T00:16:41.114Z,32.33
2019-01-28T00:18:49.190Z,31.00
2019-01-28T00:20:54.883Z,28.12
2019-01-28T00:23:00.352Z,27.75
2019-01-28T00:25:06.446Z,28.25
2019-01-28T00:27:14.659Z,37.88
2019-01-28T00:29:17.687Z,24.00
2019-01-28T00:31:25.830Z,27.75
2019-01-28T00:33:34.635Z,31.22
2019-01-28T00:35:42.815Z,28.75
2019-01-28T00:37:48.481Z,29.63
2019-01-28T00:39:52.362Z,26.00
2019-01-28T00:41:58.871Z,32.13
2019-01-28T00:44:02.020Z,25.33
2019-01-28T00:46:05.938Z,28.25
2019-01-28T00:48:09.906Z,28.00
2019-01-28T00:50:13.173Z,25.67
2019-01-28T00:52:21.182Z,32.63
2019-01-28T00:54:26.762Z,25.00
2019-01-28T00:56:34.862Z,28.12
2019-01-28T00:58:38.690Z,30.00
2019-01-28T01:00:42.649Z,24.00
2019-01-28T01:02:50.920Z,28.12
2019-01-28T01:04:55.594Z,24.00
2019-01-28T01:07:03.799Z,24.75
2019-01-28T01:09:07.626Z,24.75
2019-01-28T01:11:14.611Z,27.62
2019-01-28T01:13:20.202Z,26.00
2019-01-28T01:15:24.098Z,28.00
2019-01-28T01:17:30.459Z,28.50
2019-01-28T01:19:37.741Z,23.29
2019-01-28T01:21:40.709Z,29.00
2019-01-28T01:23:47.976Z,27.57
2019-01-28T01:25:55.282Z,25.57
2019-01-28T01:28:11.735Z,25.00
2019-01-28T01:30:16.623Z,22.00
2019-01-28T01:32:20.415Z,24.50
2019-01-28T01:34:26.135Z,21.87
2019-01-28T01:36:29.150Z,21.33
2019-01-28T01:38:33.083Z,25.75
2019-01-28T01:40:38.764Z,31.87
2019-01-28T01:42:44.203Z,25.62
2019-01-28T01:44:47.358Z,23.00
2019-01-28T01:46:52.162Z,25.43
2019-01-28T01:49:00.216Z,27.00
2019-01-28T01:51:04.162Z,27.25
2019-01-28T01:53:13.939Z,26.45
2019-01-28T01:55:17.744Z,27.00
2019-01-28T01:57:23.402Z,24.37
2019-01-28T01:59:27.382Z,26.00
2019-01-28T02:01:31.377Z,27.00
2019-01-28T02:03:34.462Z,25.67
2019-01-28T02:05:42.694Z,29.12
2019-01-28T02:07:50.030Z,28.12
2019-01-28T02:09:55.587Z,26.00
2019-01-28T02:12:01.270Z,29.00
2019-01-28T02:14:06.938Z,30.00
2019-01-28T02:16:11.722Z,24.00
2019-01-28T02:18:19.024Z,24.57
2019-01-28T02:20:22.026Z,22.67
2019-01-28T02:22:29.326Z,27.43
2019-01-28T02:24:33.119Z,26.50
2019-01-28T02:26:36.198Z,31.33
2019-01-28T02:28:39.979Z,25.00
2019-01-28T02:30:48.024Z,27.00
2019-01-28T02:32:53.503Z,25.75
2019-01-28T02:35:04.210Z,21.00
2019-01-28T02:37:07.777Z,25.00
2019-01-28T02:39:10.858Z,24.00
2019-01-28T02:41:14.720Z,29.00
2019-01-28T02:43:18.394Z,21.00
2019-01-28T02:45:22.647Z,24.00
2019-01-28T02:47:26.274Z,22.75
2019-01-28T02:49:30.979Z,19.14
2019-01-28T02:51:36.459Z,25.00
2019-01-28T02:53:39.450Z,21.00
2019-01-28T02:55:43.276Z,22.00
2019-01-28T02:57:48.981Z,37.75
2019-01-28T02:59:52.764Z,29.75
2019-01-28T03:01:59.222Z,22.62
2019-01-28T03:04:07.246Z,21.00
2019-01-28T03:06:11.113Z,25.00
2019-01-28T03:08:16.591Z,27.50
2019-01-28T03:10:21.202Z,32.25
2019-01-28T03:12:26.798Z,21.50
2019-01-28T03:14:32.282Z,26.00
2019-01-28T03:16:35.214Z,23.33
2019-01-28T03:18:43.308Z,27.37
2019-01-28T03:20:46.424Z,22.33
2019-01-28T03:22:51.887Z,21.12
2019-01-28T03:24:58.315Z,22.29
2019-01-28T03:27:06.361Z,43.25
2019-01-28T03:29:10.119Z,37.75
2019-01-28T03:31:14.072Z,43.25
2019-01-28T03:33:22.123Z,48.75
2019-01-28T03:35:28.574Z,37.00
2019-01-28T03:37:37.383Z,46.00
2019-01-28T03:39:45.178Z,42.75
2019-01-28T03:41:53.981Z,49.78
2019-01-28T03:44:03.755Z,46.50
2019-01-28T03:46:09.850Z,46.71
2019-01-28T03:48:13.883Z,53.50
2019-01-28T03:50:22.063Z,54.00
2019-01-28T03:52:26.067Z,58.50
2019-01-28T03:54:33.386Z,63.56
2019-01-28T03:56:40.816Z,63.78
2019-01-28T03:58:47.410Z,61.37
2019-01-28T04:00:53.958Z,63.75
2019-01-28T04:03:01.300Z,63.11
2019-01-28T04:05:10.652Z,64.11
2019-01-28T04:07:16.107Z,62.62
2019-01-28T04:09:24.415Z,63.13
2019-01-28T04:11:31.628Z,67.89
2019-01-28T04:13:40.663Z,71.22
2019-01-28T04:15:48.115Z,69.11
2019-01-28T04:17:55.510Z,67.56
2019-01-28T04:20:03.655Z,67.33
2019-01-28T04:22:12.709Z,66.89
2019-01-28T04:24:17.546Z,71.00
2019-01-28T04:26:26.564Z,70.11
2019-01-28T04:28:33.173Z,65.37
2019-01-28T04:30:42.114Z,61.78
2019-01-28T04:32:49.573Z,68.33
2019-01-28T04:34:57.020Z,67.33
2019-01-28T04:37:12.372Z,67.44
2019-01-28T04:39:19.435Z,67.37
2019-01-28T04:41:23.416Z,69.00
2019-01-28T04:43:32.504Z,68.11
2019-01-28T04:45:39.993Z,68.67
2019-01-28T04:47:47.055Z,70.00
2019-01-28T04:49:54.036Z,59.13
2019-01-28T04:51:57.934Z,65.00
2019-01-28T04:54:04.632Z,65.87
2019-01-28T04:56:11.894Z,65.89
2019-01-28T04:58:19.150Z,67.00
2019-01-28T05:00:29.952Z,61.58
2019-01-28T05:02:36.506Z,65.37
2019-01-28T05:04:42.998Z,63.00
2019-01-28T05:06:49.454Z,65.50
2019-01-28T05:08:56.728Z,64.33
2019-01-28T05:11:04.827Z,62.75
2019-01-28T05:13:13.593Z,63.00
2019-01-28T05:15:20.395Z,64.37
2019-01-28T05:17:30.758Z,61.17
2019-01-28T05:19:37.233Z,58.00
2019-01-28T05:21:43.611Z,62.56
2019-01-28T05:23:51.446Z,55.88
2019-01-28T05:25:55.290Z,51.50
2019-01-28T05:28:03.403Z,54.38
2019-01-28T05:30:10.912Z,65.62
2019-01-28T05:32:16.892Z,58.13
2019-01-28T05:34:24.643Z,59.00
2019-01-28T05:36:28.102Z,60.67
2019-01-28T05:38:36.701Z,61.88
2019-01-28T05:40:44.193Z,62.78
2019-01-28T05:42:50.691Z,62.50
2019-01-28T05:45:00.390Z,60.56
2019-01-28T05:47:07.682Z,60.22
2019-01-28T05:49:14.847Z,58.00
2019-01-28T05:51:21.356Z,61.37
2019-01-28T05:53:27.738Z,59.00
2019-01-28T05:55:31.518Z,56.00
2019-01-28T05:57:35.323Z,57.75
2019-01-28T05:59:43.346Z,57.38
2019-01-28T06:01:47.230Z,55.50
2019-01-28T06:03:57.754Z,55.42
2019-01-28T06:06:05.750Z,53.13
2019-01-28T06:08:09.647Z,57.75
2019-01-28T06:10:14.377Z,50.25
2019-01-28T06:12:20.729Z,52.62
2019-01-28T06:14:24.130Z,59.67
2019-01-28T06:16:28.254Z,53.25
2019-01-28T06:18:35.841Z,53.14
2019-01-28T06:20:39.363Z,54.33
2019-01-28T06:22:43.678Z,54.50
2019-01-28T06:24:51.351Z,55.71
2019-01-28T06:26:55.563Z,54.50
2019-01-28T06:29:01.611Z,57.88
2019-01-28T06:31:05.047Z,59.00
2019-01-28T06:33:13.506Z,52.00
2019-01-28T06:35:17.732Z,58.00
2019-01-28T06:37:25.474Z,49.38
2019-01-28T06:39:28.930Z,58.00
2019-01-28T06:41:34.214Z,51.86
2019-01-28T06:43:38.483Z,57.75
2019-01-28T06:45:41.372Z,56.00
2019-01-28T06:47:47.316Z,60.38
2019-01-28T06:49:58.375Z,47.92
2019-01-28T06:52:01.999Z,52.00
2019-01-28T06:54:08.047Z,61.78
2019-01-28T06:56:17.381Z,66.00
2019-01-28T06:58:20.706Z,62.33
2019-01-28T07:00:28.448Z,58.63
2019-01-28T07:02:32.930Z,59.00
2019-01-28T07:04:40.934Z,57.50
2019-01-28T07:06:47.395Z,53.13
2019-01-28T07:08:51.355Z,55.50
2019-01-28T07:10:59.394Z,55.75
2019-01-28T07:13:03.473Z,55.00
2019-01-28T07:15:13.895Z,55.33
2019-01-28T07:17:23.091Z,55.75
2019-01-28T07:19:30.062Z,56.00
2019-01-28T07:21:33.998Z,50.75
2019-01-28T07:23:42.240Z,57.62
2019-01-28T07:25:46.012Z,61.00
2019-01-28T07:27:49.881Z,57.00
2019-01-28T07:29:56.319Z,60.12
2019-01-28T07:32:04.533Z,57.25
2019-01-28T07:34:12.399Z,61.78
2019-01-28T07:36:20.446Z,57.13
2019-01-28T07:38:24.414Z,55.00
2019-01-28T07:40:32.632Z,63.38
2019-01-28T07:42:40.686Z,55.25
2019-01-28T07:44:46.161Z,56.75
2019-01-28T07:46:54.102Z,59.00
2019-01-28T07:49:02.211Z,52.13
2019-01-28T07:51:10.414Z,53.87
2019-01-28T07:53:16.709Z,54.44
2019-01-28T07:55:20.699Z,53.00
2019-01-28T07:57:31.241Z,57.42
2019-01-28T07:59:37.638Z,57.00
2019-01-28T08:01:45.671Z,54.75
2019-01-28T08:03:52.362Z,58.63
2019-01-28T08:05:55.435Z,56.33
2019-01-28T08:08:01.826Z,59.38
2019-01-28T08:10:09.950Z,59.50
2019-01-28T08:12:18.210Z,62.25
2019-01-28T08:14:25.444Z,62.11
2019-01-28T08:16:31.914Z,67.37
2019-01-28T08:18:38.326Z,63.00
2019-01-28T08:20:46.671Z,65.87
2019-01-28T08:22:57.118Z,65.92
2019-01-28T08:25:06.790Z,62.50
2019-01-28T08:27:14.243Z,64.00
2019-01-28T08:29:20.715Z,69.25
2019-01-28T08:31:28.822Z,64.25
2019-01-28T08:33:37.791Z,65.67
2019-01-28T08:35:46.742Z,66.00
2019-01-28T08:37:54.075Z,67.44
2019-01-28T08:40:04.607Z,69.87
2019-01-28T08:42:13.610Z,63.89
2019-01-28T08:44:20.036Z,64.87
2019-01-28T08:46:30.208Z,64.25
2019-01-28T08:48:34.583Z,65.00
2019-01-28T08:50:41.755Z,63.78
2019-01-28T08:52:49.387Z,67.00
2019-01-28T08:54:59.827Z,67.75
2019-01-28T08:57:06.314Z,64.62
2019-01-28T08:59:17.058Z,118.64
2019-01-28T09:01:26.666Z,78.00
2019-01-28T09:03:35.112Z,249.64
2019-01-28T09:05:45.076Z,138.55
2019-01-28T09:07:52.620Z,75.44
2019-01-28T09:10:01.840Z,72.00
2019-01-28T09:12:16.395Z,208.33
2019-01-28T09:14:38.474Z,397.17
2019-01-28T09:16:42.431Z,165.40
2019-01-28T09:18:53.665Z,87.10
2019-01-28T09:21:00.058Z,63.38
2019-01-28T09:23:07.558Z,66.67
2019-01-28T09:25:15.871Z,60.00
2019-01-28T09:27:22.679Z,61.63
2019-01-28T09:29:29.887Z,66.44
2019-01-28T09:31:36.412Z,61.88
2019-01-28T09:33:51.628Z,166.16
2019-01-28T09:36:06.243Z,243.19
2019-01-28T09:38:11.581Z,97.14
2019-01-28T09:40:25.548Z,90.44
2019-01-28T09:42:36.607Z,87.20
2019-01-28T09:44:45.482Z,70.00
2019-01-28T09:46:55.208Z,68.78
2019-01-28T09:49:01.707Z,68.37
2019-01-28T09:51:08.951Z,65.00
2019-01-28T09:53:17.947Z,71.67
2019-01-28T09:55:26.826Z,71.33
2019-01-28T09:57:34.110Z,67.86
2019-01-28T09:59:41.466Z,67.11
2019-01-28T10:01:52.207Z,69.83
2019-01-28T10:03:59.409Z,68.00
2019-01-28T10:06:07.668Z,67.80
2019-01-28T10:08:17.458Z,68.00
2019-01-28T10:10:24.853Z,69.22
2019-01-28T10:12:34.552Z,67.50
2019-01-28T10:14:41.072Z,62.00
2019-01-28T10:16:48.329Z,68.78
2019-01-28T10:18:56.594Z,64.75
2019-01-28T10:21:04.899Z,70.25
2019-01-28T10:23:12.552Z,70.33
2019-01-28T10:25:21.148Z,68.67
2019-01-28T10:27:28.294Z,69.56
2019-01-28T10:29:36.441Z,68.37
2019-01-28T10:31:42.834Z,67.25
2019-01-28T10:33:52.112Z,70.56
2019-01-28T10:35:59.356Z,68.44
2019-01-28T10:38:06.143Z,67.75
2019-01-28T10:40:18.308Z,67.25
2019-01-28T10:42:27.583Z,67.11
2019-01-28T10:44:36.635Z,70.00
2019-01-28T10:46:43.346Z,66.12
2019-01-28T10:48:49.972Z,69.12
2019-01-28T10:50:58.277Z,72.67
2019-01-28T10:53:03.904Z,66.00
2019-01-28T10:55:13.923Z,71.22
2019-01-28T10:57:21.749Z,65.78
2019-01-28T10:59:29.019Z,70.00
2019-01-28T11:01:37.408Z,68.75
2019-01-28T11:03:44.103Z,64.62
2019-01-28T11:05:52.240Z,65.25
2019-01-28T11:08:00.231Z,66.00
2019-01-28T11:10:08.958Z,63.22
2019-01-28T11:12:16.347Z,67.78
2019-01-28T11:14:25.532Z,73.11
2019-01-28T11:16:36.113Z,67.50
2019-01-28T11:18:39.899Z,65.00
2019-01-28T11:20:46.554Z,66.00
2019-01-28T11:22:54.834Z,73.25
2019-01-28T11:25:06.286Z,75.56
2019-01-28T11:27:13.794Z,73.78
2019-01-28T11:29:22.655Z,72.78
2019-01-28T11:31:30.125Z,76.56
2019-01-28T11:33:39.568Z,68.50
2019-01-28T11:35:47.893Z,74.44
2019-01-28T11:37:55.564Z,69.78
2019-01-28T11:40:02.705Z,73.37
2019-01-28T11:42:12.868Z,76.78
2019-01-28T11:44:20.396Z,74.78
2019-01-28T11:46:28.635Z,78.11
2019-01-28T11:48:37.667Z,74.44
2019-01-28T11:50:46.664Z,86.00
2019-01-28T11:52:54.378Z,71.78
2019-01-28T11:55:00.868Z,71.12
2019-01-28T11:57:10.031Z,78.00
2019-01-28T11:59:19.872Z,80.11
2019-01-28T12:01:27.252Z,75.89
2019-01-28T12:03:34.532Z,73.78
2019-01-28T12:05:41.870Z,77.67
2019-01-28T12:07:49.596Z,74.56
2019-01-28T12:09:59.042Z,74.67
2019-01-28T12:12:07.350Z,71.50
2019-01-28T12:14:15.591Z,70.00
2019-01-28T12:16:23.023Z,75.67
2019-01-28T12:18:30.178Z,77.78
2019-01-28T12:20:39.541Z,76.37
2019-01-28T12:22:48.493Z,78.11
2019-01-28T12:24:58.363Z,78.22
2019-01-28T12:27:06.604Z,86.22
2019-01-28T12:29:14.839Z,91.67
2019-01-28T12:31:24.814Z,77.44
2019-01-28T12:33:32.209Z,76.44
2019-01-28T12:35:40.406Z,77.20
2019-01-28T12:37:50.262Z,76.44
2019-01-28T12:39:56.730Z,74.50
2019-01-28T12:42:06.644Z,79.56
2019-01-28T12:44:16.238Z,76.90
2019-01-28T12:46:24.417Z,76.20
2019-01-28T12:48:31.899Z,78.44
2019-01-28T12:50:40.570Z,78.78
2019-01-28T12:52:49.576Z,74.00
2019-01-28T12:54:54.263Z,78.00
2019-01-28T12:56:59.018Z,76.75
2019-01-28T12:59:09.428Z,75.78
2019-01-28T13:01:19.559Z,77.78
2019-01-28T13:03:29.226Z,78.44
2019-01-28T13:05:33.950Z,74.25
2019-01-28T13:07:41.327Z,77.33
2019-01-28T13:09:51.137Z,75.33
2019-01-28T13:11:58.435Z,78.33
2019-01-28T13:14:06.587Z,78.60
2019-01-28T13:16:14.754Z,85.90
2019-01-28T13:18:24.587Z,103.36
2019-01-28T13:20:35.318Z,97.22
2019-01-28T13:22:44.915Z,90.33
2019-01-28T13:24:54.222Z,89.30
2019-01-28T13:27:04.215Z,81.78
2019-01-28T13:29:14.067Z,81.78
2019-01-28T13:31:18.926Z,77.00
2019-01-28T13:33:28.923Z,84.56
2019-01-28T13:35:34.568Z,91.50
2019-01-28T13:37:42.653Z,84.50
2019-01-28T13:39:51.722Z,88.40
2019-01-28T13:42:00.690Z,91.00
2019-01-28T13:44:09.010Z,91.00
2019-01-28T13:46:17.168Z,88.00
2019-01-28T13:48:28.010Z,92.10
2019-01-28T13:50:31.890Z,96.00
2019-01-28T13:52:36.791Z,88.33
2019-01-28T13:54:45.103Z,85.11
2019-01-28T13:56:55.922Z,92.80
2019-01-28T13:59:05.077Z,91.20
2019-01-28T14:01:10.943Z,85.00
2019-01-28T14:03:21.532Z,90.00
2019-01-28T14:05:29.779Z,79.00
2019-01-28T14:07:40.544Z,85.60
2019-01-28T14:09:51.263Z,90.60
2019-01-28T14:12:02.174Z,96.40
2019-01-28T14:14:12.343Z,89.56
2019-01-28T14:16:17.926Z,93.00
2019-01-28T14:18:27.972Z,97.00
2019-01-28T14:20:38.722Z,91.33
2019-01-28T14:22:49.744Z,98.90
2019-01-28T14:24:58.764Z,87.30
2019-01-28T14:27:02.107Z,85.00
2019-01-28T14:29:07.086Z,92.14
2019-01-28T14:31:17.186Z,88.44
2019-01-28T14:33:27.983Z,87.90
2019-01-28T14:35:36.820Z,87.67
2019-01-28T14:37:47.272Z,94.56
2019-01-28T14:39:55.434Z,90.33
2019-01-28T14:42:06.280Z,99.00
2019-01-28T14:44:16.954Z,94.80
2019-01-28T14:46:21.100Z,101.00
2019-01-28T14:48:31.842Z,99.00
2019-01-28T14:50:37.832Z,97.00
2019-01-28T14:52:45.695Z,98.00
2019-01-28T14:54:50.567Z,89.00
2019-01-28T14:56:54.611Z,96.33
2019-01-28T14:59:00.514Z,105.75
2019-01-28T15:01:11.308Z,99.60
2019-01-28T15:03:19.740Z,91.10
2019-01-28T15:05:24.914Z,109.29
2019-01-28T15:07:35.662Z,103.20
2019-01-28T15:09:46.525Z,102.10
2019-01-28T15:11:55.579Z,107.60
2019-01-28T15:14:08.083Z,112.09
2019-01-28T15:16:12.062Z,111.00
2019-01-28T15:18:17.006Z,98.25
2019-01-28T15:20:22.758Z,108.50
2019-01-28T15:22:26.895Z,117.40
2019-01-28T15:24:30.847Z,117.00
2019-01-28T15:26:35.926Z,115.29
2019-01-28T15:28:39.940Z,125.00
2019-01-28T15:30:44.065Z,131.00
2019-01-28T15:32:49.022Z,135.00
2019-01-28T15:34:58.907Z,120.09
2019-01-28T15:37:02.152Z,132.50
2019-01-28T15:39:07.644Z,129.20
2019-01-28T15:41:12.831Z,127.00
2019-01-28T15:43:17.043Z,131.40
2019-01-28T15:45:30.908Z,125.91
2019-01-28T15:47:40.595Z,129.00
2019-01-28T15:49:53.321Z,129.20
2019-01-28T15:52:02.434Z,133.08
2019-01-28T15:54:14.759Z,145.87
2019-01-28T15:56:20.425Z,145.00
2019-01-28T15:58:29.868Z,141.62
2019-01-28T16:00:38.602Z,160.37
2019-01-28T16:02:49.802Z,148.64
2019-01-28T16:05:03.579Z,154.20
2019-01-28T16:07:12.985Z,150.23
2019-01-28T16:09:30.135Z,137.19
2019-01-28T16:11:40.723Z,152.00
2019-01-28T16:13:53.307Z,140.38
2019-01-28T16:16:09.430Z,142.70
2019-01-28T16:18:21.928Z,148.69
2019-01-28T16:20:37.573Z,171.94
2019-01-28T16:23:00.395Z,159.88
2019-01-28T16:25:05.471Z,145.00
2019-01-28T16:27:10.358Z,158.00
2019-01-28T16:29:20.250Z,146.92
2019-01-28T16:31:31.062Z,149.43
2019-01-28T16:33:41.075Z,148.92
2019-01-28T16:35:45.222Z,148.20
2019-01-28T16:37:51.066Z,178.67
2019-01-28T16:39:55.227Z,162.40
2019-01-28T16:41:59.224Z,169.40
2019-01-28T16:44:07.207Z,168.82
2019-01-28T16:46:20.426Z,139.12
2019-01-28T16:48:29.659Z,129.50
2019-01-28T16:50:38.718Z,149.50
2019-01-28T16:52:42.823Z,139.80
2019-01-28T16:54:46.246Z,150.00
2019-01-28T16:56:50.171Z,147.40
2019-01-28T16:59:00.587Z,165.75
2019-01-28T17:01:09.285Z,180.18
2019-01-28T17:03:20.842Z,168.50
2019-01-28T17:05:25.821Z,165.67
2019-01-28T17:07:35.482Z,138.67
2019-01-28T17:09:38.874Z,132.50
2019-01-28T17:11:43.059Z,145.00
2019-01-28T17:13:47.453Z,145.00
2019-01-28T17:15:51.576Z,129.80
2019-01-28T17:17:55.813Z,131.00
2019-01-28T17:20:05.598Z,136.00
2019-01-28T17:22:12.634Z,132.60
2019-01-28T17:24:17.074Z,140.80
2019-01-28T17:26:27.259Z,189.91
2019-01-28T17:28:40.405Z,183.62
2019-01-28T17:30:47.690Z,177.67
2019-01-28T17:32:52.175Z,163.60
2019-01-28T17:34:56.431Z,166.00
2019-01-28T17:37:00.614Z,169.50
2019-01-28T17:39:06.360Z,163.29
2019-01-28T17:41:15.012Z,165.00
2019-01-28T17:43:29.339Z,155.87
2019-01-28T17:45:33.680Z,162.00
2019-01-28T17:47:37.382Z,147.80
2019-01-28T17:49:41.690Z,153.17
2019-01-28T17:51:45.157Z,151.00
2019-01-28T17:53:55.656Z,139.23
2019-01-28T17:56:04.862Z,157.75
2019-01-28T17:58:14.127Z,160.42
2019-01-28T18:00:29.554Z,144.85
2019-01-28T18:02:30.326Z,158.00
2019-01-28T18:04:44.387Z,159.24
2019-01-28T18:06:53.750Z,147.83
2019-01-28T18:08:57.243Z,161.50
2019-01-28T18:11:01.676Z,150.40
2019-01-28T18:13:12.546Z,161.54
2019-01-28T18:15:27.677Z,160.72
2019-01-28T18:17:32.252Z,167.00
2019-01-28T18:19:44.552Z,162.36
2019-01-28T18:21:50.082Z,177.00
2019-01-28T18:24:15.046Z,175.32
2019-01-28T18:26:29.517Z,172.41
2019-01-28T18:28:33.850Z,176.80
2019-01-28T18:30:49.435Z,166.33
2019-01-28T18:33:01.658Z,187.38
2019-01-28T18:35:07.571Z,183.00
2019-01-28T18:37:16.310Z,181.00
2019-01-28T18:39:26.652Z,164.29
2019-01-28T18:41:31.422Z,167.50
2019-01-28T18:43:43.428Z,162.67
2019-01-28T18:45:47.353Z,163.00
2019-01-28T18:47:54.610Z,157.00
2019-01-28T18:49:58.952Z,161.00
2019-01-28T18:52:15.469Z,159.85
2019-01-28T18:54:27.212Z,170.13
2019-01-28T18:56:36.277Z,145.64
2019-01-28T18:58:41.429Z,149.67
2019-01-28T19:00:57.522Z,143.89
2019-01-28T19:03:10.202Z,148.15
2019-01-28T19:05:15.207Z,142.80
2019-01-28T19:07:25.082Z,153.55
2019-01-28T19:09:29.294Z,149.00
2019-01-28T19:11:33.570Z,132.80
2019-01-28T19:13:42.521Z,151.09
2019-01-28T19:15:49.314Z,149.50
2019-01-28T19:18:28.385Z,150.35
2019-01-28T19:20:40.035Z,152.36
2019-01-28T19:22:44.151Z,141.00
2019-01-28T19:25:00.438Z,131.12
2019-01-28T19:27:05.746Z,140.67
2019-01-28T19:29:09.822Z,159.80
2019-01-28T19:31:17.279Z,141.44
2019-01-28T19:33:21.445Z,141.00
2019-01-28T19:35:25.523Z,125.00
2019-01-28T19:37:29.777Z,143.20
2019-01-28T19:39:33.239Z,127.80
2019-01-28T19:41:45.845Z,114.31
2019-01-28T19:43:50.591Z,109.60
2019-01-28T19:45:54.203Z,106.00
2019-01-28T19:48:08.220Z,105.54
2019-01-28T19:50:21.226Z,101.81
2019-01-28T19:52:26.408Z,89.25
2019-01-28T19:54:35.530Z,80.87
2019-01-28T19:56:39.026Z,86.00
2019-01-28T19:58:46.246Z,80.22
2019-01-28T20:00:53.983Z,83.67
2019-01-28T20:02:58.315Z,89.00
2019-01-28T20:05:01.883Z,91.00
2019-01-28T20:07:09.607Z,81.11
2019-01-28T20:09:19.921Z,82.00
2019-01-28T20:11:30.734Z,86.90
2019-01-28T20:13:41.695Z,83.20
2019-01-28T20:15:52.011Z,79.23
2019-01-28T20:18:02.220Z,87.11
2019-01-28T20:20:13.214Z,76.37
2019-01-28T20:22:20.875Z,81.56
2019-01-28T20:24:25.285Z,85.00
2019-01-28T20:26:34.585Z,75.75
2019-01-28T20:28:39.528Z,78.75
2019-01-28T20:30:47.235Z,75.89
2019-01-28T20:32:57.170Z,78.67
2019-01-28T20:35:06.844Z,78.20
2019-01-28T20:37:15.574Z,76.22
2019-01-28T20:39:22.774Z,79.67
2019-01-28T20:41:30.458Z,75.11
2019-01-28T20:43:38.125Z,78.67
2019-01-28T20:45:46.599Z,77.78
2019-01-28T20:47:52.038Z,73.00
2019-01-28T20:50:01.228Z,77.67
2019-01-28T20:52:05.503Z,76.00
2019-01-28T20:54:13.068Z,75.22
2019-01-28T20:56:22.471Z,75.37
2019-01-28T20:58:30.007Z,74.67
2019-01-28T21:00:39.541Z,78.00
2019-01-28T21:02:48.961Z,76.00
2019-01-28T21:04:58.235Z,75.78
2019-01-28T21:07:06.478Z,73.12
2019-01-28T21:09:14.140Z,76.78
2019-01-28T21:11:20.832Z,76.37
2019-01-28T21:13:28.536Z,77.67
2019-01-28T21:15:35.910Z,74.00
2019-01-28T21:17:45.962Z,77.75
2019-01-28T21:19:53.725Z,75.33
2019-01-28T21:22:03.928Z,77.67
2019-01-28T21:24:14.112Z,76.89
2019-01-28T21:26:21.938Z,78.78
2019-01-28T21:28:32.082Z,83.44
2019-01-28T21:30:43.083Z,90.00
2019-01-28T21:32:50.786Z,77.22
2019-01-28T21:34:58.350Z,78.78
2019-01-28T21:37:08.564Z,76.50
2019-01-28T21:39:17.995Z,77.22
2019-01-28T21:41:28.107Z,73.33
2019-01-28T21:43:35.822Z,76.11
2019-01-28T21:45:43.467Z,78.67
2019-01-28T21:47:51.666Z,76.67
2019-01-28T21:49:59.061Z,75.25
2019-01-28T21:52:06.799Z,78.56
2019-01-28T21:54:14.478Z,75.78
2019-01-28T21:56:23.943Z,75.22
2019-01-28T21:58:33.264Z,74.00
2019-01-28T22:00:42.349Z,79.20
2019-01-28T22:02:47.325Z,75.25
2019-01-28T22:04:58.109Z,75.60
2019-01-28T22:07:04.258Z,75.37
2019-01-28T22:09:11.098Z,76.75
2019-01-28T22:11:15.970Z,72.00
2019-01-28T22:13:23.499Z,71.22
2019-01-28T22:15:33.766Z,79.50
2019-01-28T22:17:42.369Z,70.12
2019-01-28T22:19:51.063Z,70.50
2019-01-28T22:21:59.615Z,66.62
2019-01-28T22:24:08.159Z,67.50
2019-01-28T22:26:15.166Z,66.75
2019-01-28T22:28:22.763Z,73.11
2019-01-28T22:30:26.995Z,66.50
2019-01-28T22:32:33.156Z,65.50
2019-01-28T22:34:47.681Z,62.00
2019-01-28T22:36:51.879Z,59.63
2019-01-28T22:38:59.165Z,66.62
2019-01-28T22:41:08.094Z,63.50
2019-01-28T22:43:16.610Z,63.38
2019-01-28T22:45:21.062Z,62.75
2019-01-28T22:47:29.360Z,62.00
2019-01-28T22:49:33.622Z,59.75
2019-01-28T22:51:42.002Z,61.00
2019-01-28T22:53:45.527Z,62.00
2019-01-28T22:55:49.639Z,56.50
2019-01-28T22:57:56.061Z,53.87
2019-01-28T23:00:09.091Z,54.22
2019-01-28T23:02:17.966Z,60.56
2019-01-28T23:04:24.432Z,55.22
2019-01-28T23:06:31.166Z,58.25
2019-01-28T23:08:39.978Z,58.33
2019-01-28T23:10:46.539Z,57.13
2019-01-28T23:12:54.765Z,56.63
2019-01-28T23:14:58.670Z,59.25
2019-01-28T23:17:09.327Z,59.25
2019-01-28T23:19:16.586Z,62.00
2019-01-28T23:21:23.898Z,61.78
2019-01-28T23:23:32.925Z,56.56
2019-01-28T23:25:41.718Z,58.00
2019-01-28T23:27:48.239Z,58.38
2019-01-28T23:29:58.029Z,57.67
2019-01-28T23:32:04.415Z,55.50
2019-01-28T23:34:15.079Z,56.75
2019-01-28T23:36:21.488Z,57.25
2019-01-28T23:38:30.536Z,54.33
2019-01-28T23:40:38.545Z,61.25
2019-01-28T23:42:46.618Z,62.00
2019-01-28T23:44:53.762Z,60.78
2019-01-28T23:47:00.237Z,56.37
2019-01-28T23:49:06.635Z,60.63
2019-01-28T23:51:15.547Z,61.67
2019-01-28T23:53:22.730Z,60.89
2019-01-28T23:55:31.726Z,62.11
2019-01-28T23:57:40.646Z,58.78
2019-01-28T23:59:47.914Z,63.33
